createdAt,value
2018-10-16T00:00:51.173Z,84.02
2018-10-16T00:03:19.266Z,84.58
2018-10-16T00:05:47.285Z,84.25
2018-10-16T00:08:15.423Z,84.67
2018-10-16T00:10:46.612Z,85.18
2018-10-16T00:13:14.729Z,84.57
2018-10-16T00:15:42.747Z,84.97
2018-10-16T00:18:11.896Z,84.57
2018-10-16T00:20:40.545Z,84.33
2018-10-16T00:23:09.732Z,84.85
2018-10-16T00:25:37.824Z,84.78
2018-10-16T00:28:06.203Z,85.15
2018-10-16T00:30:34.230Z,85.68
2018-10-16T00:33:02.399Z,84.95
2018-10-16T00:35:30.498Z,84.75
2018-10-16T00:37:58.484Z,84.63
2018-10-16T00:40:26.503Z,85.65
2018-10-16T00:42:54.525Z,85.72
2018-10-16T00:45:22.519Z,85.16
2018-10-16T00:47:50.531Z,84.67
2018-10-16T00:50:18.538Z,84.87
2018-10-16T00:52:46.549Z,84.64
2018-10-16T00:55:21.194Z,83.67
2018-10-16T00:57:49.214Z,83.33
2018-10-16T01:00:17.443Z,83.15
2018-10-16T01:02:45.605Z,83.84
2018-10-16T01:05:13.825Z,83.69
2018-10-16T01:07:42.276Z,82.92
2018-10-16T01:10:11.206Z,83.07
2018-10-16T01:12:39.775Z,83.37
2018-10-16T01:15:09.111Z,83.35
2018-10-16T01:17:37.562Z,83.73
2018-10-16T01:20:07.353Z,83.94
2018-10-16T01:22:35.320Z,82.47
2018-10-16T01:25:03.334Z,81.40
2018-10-16T01:27:31.280Z,82.96
2018-10-16T01:29:59.403Z,82.80
2018-10-16T01:32:27.461Z,84.26
2018-10-16T01:34:55.525Z,84.28
2018-10-16T01:37:23.617Z,84.06
2018-10-16T01:39:51.627Z,83.65
2018-10-16T01:42:19.684Z,83.78
2018-10-16T01:44:47.721Z,83.70
2018-10-16T01:47:15.789Z,83.23
2018-10-16T01:49:43.797Z,82.71
2018-10-16T01:52:11.872Z,82.17
2018-10-16T01:54:40.052Z,82.42
2018-10-16T01:57:08.087Z,84.50
2018-10-16T01:59:36.155Z,84.27
2018-10-16T02:02:04.870Z,83.86
2018-10-16T02:04:33.305Z,83.65
2018-10-16T02:07:01.387Z,83.75
2018-10-16T02:09:29.592Z,83.33
2018-10-16T02:11:57.746Z,83.22
2018-10-16T02:14:25.889Z,82.69
2018-10-16T02:16:54.030Z,82.54
2018-10-16T02:19:21.998Z,82.06
2018-10-16T02:21:50.111Z,82.18
2018-10-16T02:24:18.178Z,82.02
2018-10-16T02:26:46.293Z,81.06
2018-10-16T02:29:14.374Z,83.11
2018-10-16T02:31:42.407Z,83.12
2018-10-16T02:34:10.410Z,82.38
2018-10-16T02:36:38.466Z,82.97
2018-10-16T02:39:08.308Z,83.31
2018-10-16T02:41:36.525Z,82.62
2018-10-16T02:44:05.351Z,82.68
2018-10-16T02:46:33.384Z,82.18
2018-10-16T02:49:01.389Z,82.58
2018-10-16T02:51:29.518Z,81.81
2018-10-16T02:53:57.589Z,82.40
2018-10-16T02:56:25.645Z,81.79
2018-10-16T02:58:53.728Z,83.16
2018-10-16T03:01:21.673Z,81.95
2018-10-16T03:03:49.735Z,81.86
2018-10-16T03:06:17.792Z,80.46
2018-10-16T03:08:45.895Z,81.31
2018-10-16T03:11:14.036Z,81.94
2018-10-16T03:13:42.172Z,81.83
2018-10-16T03:16:10.246Z,82.13
2018-10-16T03:18:38.343Z,82.36
2018-10-16T03:21:06.396Z,82.01
2018-10-16T03:23:34.422Z,81.78
2018-10-16T03:26:02.447Z,81.91
2018-10-16T03:28:30.509Z,82.93
2018-10-16T03:30:58.635Z,83.44
2018-10-16T03:33:26.734Z,83.58
2018-10-16T03:35:54.723Z,83.44
2018-10-16T03:38:22.797Z,82.88
2018-10-16T03:40:50.780Z,83.22
2018-10-16T03:43:18.820Z,82.50
2018-10-16T03:45:46.869Z,82.16
2018-10-16T03:48:14.929Z,82.43
2018-10-16T03:50:42.924Z,82.70
2018-10-16T03:53:10.973Z,82.68
2018-10-16T03:55:38.992Z,82.53
2018-10-16T03:58:06.767Z,82.45
2018-10-16T04:00:34.828Z,81.38
2018-10-16T04:03:02.887Z,81.63
2018-10-16T04:05:30.979Z,82.97
2018-10-16T04:07:59.138Z,82.85
2018-10-16T04:10:27.286Z,83.00
2018-10-16T04:12:55.723Z,82.51
2018-10-16T04:15:23.752Z,82.66
2018-10-16T04:17:52.016Z,81.70
2018-10-16T04:20:20.270Z,81.84
2018-10-16T04:22:48.326Z,82.31
2018-10-16T04:25:16.569Z,82.26
2018-10-16T04:27:44.586Z,83.46
2018-10-16T04:30:12.806Z,83.32
2018-10-16T04:32:40.855Z,83.17
2018-10-16T04:35:14.427Z,83.45
2018-10-16T04:37:42.942Z,82.78
2018-10-16T04:40:11.185Z,83.24
2018-10-16T04:42:39.883Z,83.69
2018-10-16T04:45:09.992Z,84.09
2018-10-16T04:47:38.840Z,84.45
2018-10-16T04:50:07.278Z,85.19
2018-10-16T04:52:35.718Z,84.16
2018-10-16T04:55:04.432Z,83.75
2018-10-16T04:57:32.871Z,83.91
2018-10-16T05:00:01.389Z,82.49
2018-10-16T05:02:29.924Z,82.18
2018-10-16T05:04:58.522Z,82.24
2018-10-16T05:07:26.915Z,82.07
2018-10-16T05:09:57.484Z,82.68
2018-10-16T05:12:26.082Z,83.34
2018-10-16T05:14:54.622Z,83.17
2018-10-16T05:17:23.363Z,82.80
2018-10-16T05:19:51.887Z,82.53
2018-10-16T05:22:20.330Z,82.02
2018-10-16T05:24:48.851Z,81.67
2018-10-16T05:27:17.294Z,82.30
2018-10-16T05:29:46.613Z,81.75
2018-10-16T05:32:15.122Z,81.95
2018-10-16T05:34:43.650Z,82.37
2018-10-16T05:37:11.998Z,82.21
2018-10-16T05:39:40.594Z,82.70
2018-10-16T05:42:09.056Z,82.15
2018-10-16T05:44:38.504Z,81.86
2018-10-16T05:47:07.152Z,82.46
2018-10-16T05:49:35.681Z,82.17
2018-10-16T05:52:04.354Z,81.78
2018-10-16T05:54:33.864Z,81.63
2018-10-16T05:57:02.351Z,81.32
2018-10-16T05:59:30.878Z,81.72
2018-10-16T06:01:59.336Z,81.49
2018-10-16T06:04:27.827Z,81.75
2018-10-16T06:06:56.214Z,82.30
2018-10-16T06:09:25.045Z,82.69
2018-10-16T06:11:53.474Z,82.81
2018-10-16T06:14:22.036Z,82.99
2018-10-16T06:16:50.568Z,83.26
2018-10-16T06:19:19.189Z,82.82
2018-10-16T06:21:47.666Z,82.45
2018-10-16T06:24:16.160Z,82.41
2018-10-16T06:26:44.696Z,81.52
2018-10-16T06:29:13.284Z,80.28
2018-10-16T06:31:41.895Z,79.36
2018-10-16T06:34:10.298Z,78.89
2018-10-16T06:36:38.884Z,76.48
2018-10-16T06:39:10.232Z,73.39
2018-10-16T06:41:38.853Z,72.59
2018-10-16T06:44:07.910Z,72.45
2018-10-16T06:46:36.545Z,72.26
2018-10-16T06:49:05.374Z,71.42
2018-10-16T06:51:33.911Z,72.66
2018-10-16T06:54:02.443Z,71.19
2018-10-16T06:56:30.910Z,71.08
2018-10-16T06:58:59.598Z,70.20
2018-10-16T07:01:28.672Z,69.12
2018-10-16T07:03:57.245Z,69.33
2018-10-16T07:06:25.931Z,67.62
2018-10-16T07:08:54.486Z,65.82
2018-10-16T07:11:23.014Z,65.87
2018-10-16T07:13:51.556Z,65.50
2018-10-16T07:16:20.132Z,65.90
2018-10-16T07:18:48.529Z,69.57
2018-10-16T07:21:17.163Z,70.43
2018-10-16T07:23:45.508Z,71.48
2018-10-16T07:26:14.015Z,70.87
2018-10-16T07:28:42.436Z,71.87
2018-10-16T07:31:10.884Z,73.99
2018-10-16T07:33:39.463Z,73.90
2018-10-16T07:36:07.976Z,73.71
2018-10-16T07:38:36.480Z,73.96
2018-10-16T07:41:05.377Z,74.11
2018-10-16T07:43:33.867Z,72.74
2018-10-16T07:46:02.253Z,72.12
2018-10-16T07:48:30.852Z,73.54
2018-10-16T07:50:59.365Z,71.46
2018-10-16T07:53:28.195Z,71.72
2018-10-16T07:55:56.845Z,71.66
2018-10-16T07:58:25.248Z,71.34
2018-10-16T08:00:53.705Z,72.42
2018-10-16T08:03:22.107Z,72.90
2018-10-16T08:05:50.548Z,72.71
2018-10-16T08:08:19.134Z,72.43
2018-10-16T08:10:47.585Z,71.58
2018-10-16T08:13:16.052Z,74.44
2018-10-16T08:15:44.463Z,76.39
2018-10-16T08:18:13.174Z,75.09
2018-10-16T08:20:41.649Z,75.35
2018-10-16T08:23:10.107Z,75.94
2018-10-16T08:25:38.609Z,76.18
2018-10-16T08:28:07.157Z,75.60
2018-10-16T08:30:35.652Z,74.29
2018-10-16T08:33:04.272Z,73.79
2018-10-16T08:35:32.742Z,75.12
2018-10-16T08:40:11.458Z,74.23
2018-10-16T08:44:54.381Z,74.41
2018-10-16T08:47:33.804Z,72.52
2018-10-16T08:50:13.268Z,71.96
2018-10-16T08:52:41.725Z,72.02
2018-10-16T08:55:10.296Z,71.77
2018-10-16T08:57:38.805Z,71.37
2018-10-16T09:00:07.755Z,70.73
2018-10-16T09:02:36.415Z,69.28
2018-10-16T09:05:05.873Z,69.84
2018-10-16T09:07:34.386Z,70.96
2018-10-16T09:10:02.843Z,71.40
2018-10-16T09:12:31.429Z,70.56
2018-10-16T09:15:00.035Z,71.15
2018-10-16T09:17:28.722Z,71.05
2018-10-16T09:19:57.278Z,72.64
2018-10-16T09:22:25.747Z,73.06
2018-10-16T09:24:54.229Z,70.39
2018-10-16T09:27:22.774Z,71.08
2018-10-16T09:29:51.330Z,70.77
2018-10-16T09:32:19.896Z,70.17
2018-10-16T09:34:48.327Z,71.12
2018-10-16T09:37:16.896Z,70.04
2018-10-16T09:39:45.414Z,70.27
2018-10-16T09:42:13.772Z,67.59
2018-10-16T09:44:42.270Z,66.89
2018-10-16T09:47:10.788Z,66.57
2018-10-16T09:49:39.295Z,65.34
2018-10-16T09:52:07.792Z,65.25
2018-10-16T09:54:36.279Z,63.46
2018-10-16T09:57:04.812Z,64.13
2018-10-16T09:59:33.321Z,64.53
2018-10-16T10:02:01.696Z,63.64
2018-10-16T10:04:30.513Z,64.57
2018-10-16T10:06:58.918Z,62.97
2018-10-16T10:09:27.435Z,62.90
2018-10-16T10:11:55.849Z,62.74
2018-10-16T10:14:24.424Z,63.96
2018-10-16T10:16:53.015Z,60.67
2018-10-16T10:19:21.679Z,61.67
2018-10-16T10:21:50.292Z,62.23
2018-10-16T10:24:18.783Z,62.81
2018-10-16T10:26:47.359Z,62.37
2018-10-16T10:29:15.722Z,62.13
2018-10-16T10:31:44.361Z,62.02
2018-10-16T10:34:12.762Z,60.76
2018-10-16T10:36:41.212Z,61.43
2018-10-16T10:39:11.464Z,62.69
2018-10-16T10:41:40.329Z,61.60
2018-10-16T10:44:08.868Z,61.15
2018-10-16T10:46:37.775Z,61.35
2018-10-16T10:49:06.475Z,60.01
2018-10-16T10:51:35.605Z,60.83
2018-10-16T10:54:03.973Z,60.12
2018-10-16T10:56:32.596Z,59.93
2018-10-16T10:59:01.127Z,59.78
2018-10-16T11:01:29.626Z,57.95
2018-10-16T11:03:58.007Z,59.17
2018-10-16T11:06:26.984Z,57.91
2018-10-16T11:08:55.613Z,57.86
2018-10-16T11:11:24.163Z,57.98
2018-10-16T11:13:52.633Z,58.41
2018-10-16T11:16:21.319Z,58.05
2018-10-16T11:18:49.926Z,58.02
2018-10-16T11:21:18.439Z,57.52
2018-10-16T11:23:46.987Z,57.56
2018-10-16T11:26:15.521Z,56.80
2018-10-16T11:28:44.068Z,57.64
2018-10-16T11:31:12.641Z,58.71
2018-10-16T11:33:41.088Z,58.90
2018-10-16T11:36:09.612Z,58.06
2018-10-16T11:38:38.188Z,57.07
2018-10-16T11:41:06.907Z,57.10
2018-10-16T11:43:35.468Z,58.15
2018-10-16T11:46:04.095Z,56.91
2018-10-16T11:48:39.082Z,56.07
2018-10-16T11:51:07.636Z,56.44
2018-10-16T11:53:36.274Z,55.40
2018-10-16T11:56:04.909Z,56.08
2018-10-16T11:58:33.499Z,54.96
2018-10-16T12:01:02.191Z,55.00
2018-10-16T12:03:30.772Z,54.72
2018-10-16T12:05:59.373Z,54.39
2018-10-16T12:08:27.881Z,54.45
2018-10-16T12:10:56.366Z,55.37
2018-10-16T12:13:24.903Z,54.65
2018-10-16T12:15:54.023Z,54.93
2018-10-16T12:18:28.454Z,56.45
2018-10-16T12:21:00.318Z,55.89
2018-10-16T12:23:28.863Z,55.88
2018-10-16T12:25:57.665Z,55.19
2018-10-16T12:28:26.282Z,56.31
2018-10-16T12:30:54.809Z,56.10
2018-10-16T12:33:23.520Z,55.26
2018-10-16T12:35:52.767Z,54.11
2018-10-16T12:38:21.396Z,54.42
2018-10-16T12:40:49.958Z,54.41
2018-10-16T12:43:18.578Z,55.38
2018-10-16T12:45:47.041Z,54.89
2018-10-16T12:48:15.620Z,55.68
2018-10-16T12:50:44.024Z,53.76
2018-10-16T12:53:12.593Z,54.15
2018-10-16T12:55:41.036Z,54.15
2018-10-16T12:58:09.625Z,53.53
2018-10-16T13:00:38.211Z,54.23
2018-10-16T13:03:06.772Z,53.22
2018-10-16T13:05:35.262Z,52.66
2018-10-16T13:08:03.830Z,52.97
2018-10-16T13:10:32.516Z,52.75
2018-10-16T13:13:01.084Z,52.93
2018-10-16T13:15:29.716Z,53.55
2018-10-16T13:17:58.368Z,54.08
2018-10-16T13:20:27.472Z,55.43
2018-10-16T13:22:56.304Z,56.89
2018-10-16T13:25:24.894Z,55.77
2018-10-16T13:27:53.512Z,54.71
2018-10-16T13:30:22.263Z,53.93
2018-10-16T13:32:51.998Z,55.55
2018-10-16T13:35:21.400Z,56.27
2018-10-16T13:37:50.418Z,57.13
2018-10-16T13:40:19.128Z,56.15
2018-10-16T13:42:47.748Z,56.20
2018-10-16T13:45:17.285Z,56.98
2018-10-16T13:47:45.838Z,57.95
2018-10-16T13:50:15.714Z,57.55
2018-10-16T13:52:44.774Z,58.01
2018-10-16T13:55:13.697Z,60.68
2018-10-16T13:57:42.471Z,58.81
2018-10-16T14:00:19.909Z,60.73
2018-10-16T14:02:50.898Z,60.53
2018-10-16T14:05:19.822Z,60.66
2018-10-16T14:07:48.212Z,61.20
2018-10-16T14:10:17.302Z,58.52
2018-10-16T14:12:47.150Z,60.18
2018-10-16T14:15:16.317Z,59.55
2018-10-16T14:17:45.320Z,60.43
2018-10-16T14:20:14.182Z,61.33
2018-10-16T14:22:43.278Z,61.29
2018-10-16T14:25:13.571Z,60.79
2018-10-16T14:27:42.711Z,61.54
2018-10-16T14:30:12.901Z,61.25
2018-10-16T14:32:42.111Z,61.09
2018-10-16T14:35:11.551Z,61.77
2018-10-16T14:37:41.241Z,62.75
2018-10-16T14:40:22.322Z,60.67
2018-10-16T14:42:51.234Z,61.14
2018-10-16T14:45:20.009Z,61.38
2018-10-16T14:47:49.262Z,60.61
2018-10-16T14:50:17.749Z,61.30
2018-10-16T14:56:11.957Z,60.37
2018-10-16T14:58:40.740Z,60.75
2018-10-16T15:01:09.384Z,60.32
2018-10-16T15:03:38.000Z,61.64
2018-10-16T15:06:06.582Z,60.97
2018-10-16T15:08:35.147Z,62.46
2018-10-16T15:11:03.802Z,61.58
2018-10-16T15:13:32.386Z,62.28
2018-10-16T15:16:01.030Z,62.52
2018-10-16T15:18:29.678Z,62.18
2018-10-16T15:20:59.372Z,62.99
2018-10-16T15:23:28.109Z,63.46
2018-10-16T15:25:56.613Z,62.90
2018-10-16T15:28:25.228Z,63.07
2018-10-16T15:30:53.666Z,62.34
2018-10-16T15:33:22.313Z,63.57
2018-10-16T15:35:50.925Z,63.27
2018-10-16T15:38:19.525Z,63.59
2018-10-16T15:40:48.110Z,63.93
2018-10-16T15:43:16.789Z,64.60
2018-10-16T15:45:45.406Z,64.26
2018-10-16T15:48:13.936Z,63.26
2018-10-16T15:50:42.548Z,62.68
2018-10-16T15:53:11.110Z,63.25
2018-10-16T15:55:39.586Z,62.50
2018-10-16T15:58:08.157Z,63.87
2018-10-16T16:00:36.591Z,63.19
2018-10-16T16:03:05.269Z,63.97
2018-10-16T16:05:33.831Z,62.86
2018-10-16T16:08:02.447Z,63.87
2018-10-16T16:10:31.078Z,63.82
2018-10-16T16:12:59.897Z,64.77
2018-10-16T16:15:28.471Z,64.39
2018-10-16T16:17:57.315Z,65.19
2018-10-16T16:20:25.947Z,65.53
2018-10-16T16:22:54.639Z,65.84
2018-10-16T16:25:23.248Z,65.09
2018-10-16T16:27:51.838Z,65.76
2018-10-16T16:30:20.635Z,66.91
2018-10-16T16:32:49.443Z,66.97
2018-10-16T16:35:18.758Z,66.41
2018-10-16T16:37:47.457Z,66.37
2018-10-16T16:40:16.299Z,67.32
2018-10-16T16:42:44.835Z,66.95
2018-10-16T16:45:13.497Z,67.60
2018-10-16T16:47:42.042Z,67.60
2018-10-16T16:50:11.877Z,68.39
2018-10-16T16:52:41.003Z,68.71
2018-10-16T16:55:11.322Z,68.83
2018-10-16T16:57:39.903Z,69.31
2018-10-16T17:00:11.643Z,69.01
2018-10-16T17:02:40.953Z,69.07
2018-10-16T17:05:10.097Z,68.75
2018-10-16T17:07:38.649Z,69.78
2018-10-16T17:10:08.282Z,69.44
2018-10-16T17:12:37.280Z,70.20
2018-10-16T17:15:07.840Z,70.31
2018-10-16T17:17:36.529Z,71.54
2018-10-16T17:20:05.877Z,71.70
2018-10-16T17:22:35.429Z,70.74
2018-10-16T17:25:04.264Z,71.01
2018-10-16T17:27:32.878Z,70.37
2018-10-16T17:30:01.546Z,71.41
2018-10-16T17:32:30.105Z,72.18
2018-10-16T17:34:58.659Z,70.83
2018-10-16T17:37:27.360Z,71.51
2018-10-16T17:39:56.063Z,70.98
2018-10-16T17:42:24.884Z,71.55
2018-10-16T17:44:53.376Z,71.97
2018-10-16T17:47:22.118Z,71.69
2018-10-16T17:49:51.773Z,72.82
2018-10-16T17:52:20.661Z,72.67
2018-10-16T17:54:49.860Z,72.37
2018-10-16T17:57:19.022Z,73.14
2018-10-16T17:59:48.021Z,74.12
2018-10-16T18:02:17.044Z,73.76
2018-10-16T18:04:46.175Z,74.18
2018-10-16T18:07:15.114Z,74.89
2018-10-16T18:09:44.028Z,74.28
2018-10-16T18:12:13.058Z,74.68
2018-10-16T18:14:42.903Z,74.95
2018-10-16T18:17:11.982Z,76.24
2018-10-16T18:19:41.230Z,76.12
2018-10-16T18:22:10.229Z,76.33
2018-10-16T18:24:39.336Z,76.74
2018-10-16T18:27:10.083Z,76.23
2018-10-16T18:29:39.203Z,76.27
2018-10-16T18:32:08.208Z,76.31
2018-10-16T18:34:37.251Z,75.71
2018-10-16T18:37:06.812Z,76.52
2018-10-16T18:39:35.861Z,76.92
2018-10-16T18:42:05.196Z,77.89
2018-10-16T18:44:34.428Z,77.99
2018-10-16T18:47:03.416Z,78.66
2018-10-16T18:49:32.252Z,78.08
2018-10-16T18:52:01.205Z,78.54
2018-10-16T18:54:30.256Z,77.47
2018-10-16T18:56:59.174Z,77.96
2018-10-16T18:59:28.212Z,77.01
2018-10-16T19:01:57.104Z,76.73
2018-10-16T19:04:26.037Z,76.67
2018-10-16T19:06:54.976Z,77.50
2018-10-16T19:09:23.960Z,77.62
2018-10-16T19:11:52.887Z,78.14
2018-10-16T19:14:21.786Z,78.07
2018-10-16T19:16:50.817Z,79.13
2018-10-16T19:19:20.180Z,78.97
2018-10-16T19:21:49.048Z,78.09
2018-10-16T19:24:17.965Z,79.34
2018-10-16T19:26:46.920Z,79.07
2018-10-16T19:29:15.807Z,79.78
2018-10-16T19:31:44.667Z,79.12
2018-10-16T19:34:13.778Z,79.34
2018-10-16T19:36:42.749Z,78.46
2018-10-16T19:39:12.273Z,78.27
2018-10-16T19:41:41.297Z,77.84
2018-10-16T19:44:10.357Z,78.19
2018-10-16T19:46:39.343Z,77.84
2018-10-16T19:49:08.276Z,77.91
2018-10-16T19:51:37.397Z,77.71
2018-10-16T19:54:06.677Z,78.44
2018-10-16T19:56:35.567Z,78.55
2018-10-16T19:59:04.566Z,78.81
2018-10-16T20:01:33.417Z,78.83
2018-10-16T20:04:02.387Z,80.33
2018-10-16T20:06:31.233Z,80.94
2018-10-16T20:09:00.201Z,80.55
2018-10-16T20:11:29.202Z,80.49
2018-10-16T20:13:58.078Z,80.81
2018-10-16T20:16:27.592Z,80.62
2018-10-16T20:18:56.716Z,80.06
2018-10-16T20:21:25.552Z,80.41
2018-10-16T20:23:54.292Z,79.61
2018-10-16T20:26:23.333Z,80.58
2018-10-16T20:28:51.877Z,80.49
2018-10-16T20:31:20.345Z,81.27
2018-10-16T20:33:48.798Z,80.51
2018-10-16T20:36:17.630Z,80.83
2018-10-16T20:38:46.238Z,81.14
2018-10-16T20:41:14.871Z,82.52
2018-10-16T20:43:43.358Z,82.99
2018-10-16T20:46:11.892Z,82.59
2018-10-16T20:48:40.547Z,81.60
2018-10-16T20:51:08.875Z,81.57
2018-10-16T20:53:37.441Z,82.06
2018-10-16T20:56:06.191Z,81.77
2018-10-16T20:58:34.475Z,81.71
2018-10-16T21:01:03.016Z,81.82
2018-10-16T21:03:31.535Z,82.06
2018-10-16T21:06:00.471Z,82.16
2018-10-16T21:08:28.814Z,82.49
2018-10-16T21:10:57.278Z,82.36
2018-10-16T21:13:25.536Z,82.03
2018-10-16T21:15:53.782Z,82.00
2018-10-16T21:18:22.206Z,81.79
2018-10-16T21:20:50.486Z,81.80
2018-10-16T21:23:18.829Z,82.49
2018-10-16T21:25:47.352Z,82.66
2018-10-16T21:28:15.650Z,82.29
2018-10-16T21:30:44.079Z,83.38
2018-10-16T21:33:12.382Z,82.51
2018-10-16T21:35:40.850Z,82.36
2018-10-16T21:38:09.190Z,82.28
2018-10-16T21:40:37.535Z,82.39
2018-10-16T21:43:06.231Z,82.53
2018-10-16T21:45:34.392Z,83.04
2018-10-16T21:48:02.644Z,84.00
2018-10-16T21:50:30.992Z,83.55
2018-10-16T21:52:59.336Z,83.33
2018-10-16T21:55:27.821Z,84.44
2018-10-16T21:57:55.846Z,84.75
2018-10-16T22:00:29.520Z,84.86
2018-10-16T22:02:58.238Z,84.36
2018-10-16T22:05:26.691Z,84.76
2018-10-16T22:07:56.522Z,85.24
2018-10-16T22:10:25.174Z,84.82
2018-10-16T22:12:57.427Z,84.55
2018-10-16T22:15:25.722Z,84.01
2018-10-16T22:17:53.997Z,84.50
2018-10-16T22:20:22.172Z,84.25
2018-10-16T22:22:50.376Z,84.47
2018-10-16T22:25:18.423Z,82.84
2018-10-16T22:27:46.972Z,84.60
2018-10-16T22:30:19.017Z,83.49
2018-10-16T22:32:47.131Z,84.06
2018-10-16T22:35:15.269Z,84.79
2018-10-16T22:37:43.298Z,84.87
2018-10-16T22:40:11.423Z,86.03
2018-10-16T22:42:39.488Z,85.09
2018-10-16T22:45:09.756Z,85.59
2018-10-16T22:47:38.924Z,86.08
2018-10-16T22:50:14.482Z,85.49
2018-10-16T22:52:42.564Z,84.40
2018-10-16T22:55:10.696Z,85.35
2018-10-16T22:57:39.395Z,85.43
2018-10-16T23:00:13.836Z,85.89
2018-10-16T23:02:42.308Z,87.18
2018-10-16T23:05:10.465Z,87.69
2018-10-16T23:07:38.588Z,89.48
2018-10-16T23:10:06.683Z,88.86
2018-10-16T23:12:34.836Z,88.76
2018-10-16T23:15:03.110Z,87.95
2018-10-16T23:17:31.249Z,88.01
2018-10-16T23:19:59.335Z,88.12
2018-10-16T23:22:27.416Z,87.86
2018-10-16T23:24:55.473Z,87.41
2018-10-16T23:27:23.544Z,87.40
2018-10-16T23:29:51.735Z,87.65
2018-10-16T23:32:19.817Z,88.79
2018-10-16T23:34:47.929Z,88.29
2018-10-16T23:37:16.001Z,88.18
2018-10-16T23:39:44.013Z,88.24
2018-10-16T23:42:12.031Z,88.46
2018-10-16T23:44:40.057Z,87.52
2018-10-16T23:47:08.049Z,86.85
2018-10-16T23:49:36.074Z,85.90
2018-10-16T23:52:04.248Z,86.95
2018-10-16T23:54:32.266Z,87.78
2018-10-16T23:57:00.271Z,87.32
2018-10-16T23:59:28.775Z,86.99
